Time;durP1;ratioP1;P1;durP2;ratioP2;P2;SDS_P1;SDS_P2;PMS_P1;PMS_P2;Temp;Humidity;BMP_temperature;BMP_pressure;BME280_temperature;BME280_humidity;BME280_pressure;Samples;Min_cycle;Max_cycle;Signal;HPM_P1;HPM_P2
2021/11/06 00:00:15;;;;;;;34.83;19.30;;;;;;;;;;5111245;28;20462;-76
2021/11/06 00:02:44;;;;;;;28.50;19.40;;;;;;;;;;5112650;28;20498;-77
2021/11/06 00:05:11;;;;;;;27.03;17.00;;;;;;;;;;5112238;28;20442;-77
2021/11/06 00:07:38;;;;;;;23.63;16.77;;;;;;;;;;5112736;28;20434;-76
2021/11/06 00:10:07;;;;;;;30.03;15.93;;;;;;;;;;5113193;28;20458;-76
2021/11/06 00:12:34;;;;;;;27.07;15.40;;;;;;;;;;5112615;28;20427;-76
2021/11/06 00:15:02;;;;;;;28.10;16.53;;;;;;;;;;5110449;28;20449;-77
2021/11/06 00:17:29;;;;;;;24.80;15.17;;;;;;;;;;5112229;28;20446;-76
2021/11/06 00:19:57;;;;;;;23.17;14.77;;;;;;;;;;5112416;28;20493;-75
2021/11/06 00:22:25;;;;;;;22.33;15.87;;;;;;;;;;5113135;28;20496;-76
2021/11/06 00:24:52;;;;;;;19.50;13.63;;;;;;;;;;5113243;28;20452;-76
2021/11/06 00:27:19;;;;;;;25.53;14.47;;;;;;;;;;5113987;28;20467;-76
2021/11/06 00:29:46;;;;;;;24.17;14.57;;;;;;;;;;5114877;28;20997;-76
2021/11/06 00:32:13;;;;;;;22.27;14.43;;;;;;;;;;5114500;28;20470;-75
2021/11/06 00:34:41;;;;;;;24.97;14.07;;;;;;;;;;5112010;28;20437;-76
2021/11/06 00:37:09;;;;;;;23.47;13.73;;;;;;;;;;5110245;28;20438;-76
2021/11/06 00:39:37;;;;;;;22.67;13.63;;;;;;;;;;5111767;28;20496;-76
2021/11/06 00:42:08;;;;;;;20.37;12.80;;;;;;;;;;5112185;28;20886;-77
2021/11/06 00:44:35;;;;;;;20.90;13.40;;;;;;;;;;5112447;28;20450;-77
2021/11/06 00:47:02;;;;;;;20.73;14.20;;;;;;;;;;5112431;28;20447;-76
2021/11/06 00:49:30;;;;;;;19.57;12.77;;;;;;;;;;5113753;28;20462;-75
2021/11/06 00:51:57;;;;;;;17.98;12.38;;;;;;;;;;5113813;28;20446;-76
2021/11/06 00:54:25;;;;;;;22.35;12.98;;;;;;;;;;5096490;28;20203;-76
2021/11/06 00:56:53;;;;;;;22.20;12.60;;;;;;;;;;5111503;28;20201;-75
2021/11/06 00:59:20;;;;;;;19.23;12.20;;;;;;;;;;5109510;28;20224;-76
2021/11/06 01:01:47;;;;;;;17.92;11.20;;;;;;;;;;5111431;28;20482;-76
2021/11/06 01:04:14;;;;;;;16.58;11.30;;;;;;;;;;5111807;28;20209;-76
2021/11/06 01:06:41;;;;;;;21.38;12.93;;;;;;;;;;5112076;28;20234;-75
2021/11/06 01:09:09;;;;;;;19.98;12.00;;;;;;;;;;5111890;28;20231;-75
2021/11/06 01:11:37;;;;;;;20.25;13.68;;;;;;;;;;5113061;28;20231;-75
2021/11/06 01:14:05;;;;;;;21.20;12.18;;;;;;;;;;5113755;28;20650;-75
2021/11/06 01:16:32;;;;;;;24.88;12.95;;;;;;;;;;5113934;28;20235;-74
2021/11/06 01:19:00;;;;;;;26.23;12.55;;;;;;;;;;5110758;28;20212;-75
2021/11/06 01:21:28;;;;;;;22.15;13.00;;;;;;;;;;5108942;28;20197;-77
2021/11/06 01:23:56;;;;;;;20.65;11.95;;;;;;;;;;5090889;28;20251;-76
2021/11/06 01:26:23;;;;;;;23.55;14.43;;;;;;;;;;5090810;28;20208;-75
2021/11/06 01:28:52;;;;;;;18.23;11.82;;;;;;;;;;5106500;28;20489;-76
2021/11/06 01:31:19;;;;;;;23.38;12.02;;;;;;;;;;5106284;28;20225;-76
2021/11/06 01:33:47;;;;;;;22.17;13.52;;;;;;;;;;5109392;28;20192;-76
2021/11/06 01:36:14;;;;;;;18.17;12.57;;;;;;;;;;5109065;28;20557;-76
2021/11/06 01:38:42;;;;;;;24.85;13.60;;;;;;;;;;5109745;28;20288;-76
2021/11/06 01:41:10;;;;;;;20.15;13.25;;;;;;;;;;5111481;28;20200;-76
2021/11/06 01:43:37;;;;;;;17.77;11.65;;;;;;;;;;5111108;28;20224;-76
2021/11/06 01:46:06;;;;;;;17.98;12.38;;;;;;;;;;5111192;28;20204;-77
2021/11/06 01:48:34;;;;;;;24.35;13.90;;;;;;;;;;5111858;28;20196;-76
2021/11/06 01:51:02;;;;;;;28.30;13.85;;;;;;;;;;5095069;28;20287;-76
2021/11/06 01:53:29;;;;;;;21.60;13.25;;;;;;;;;;5113011;28;20200;-76
2021/11/06 01:55:57;;;;;;;23.48;13.43;;;;;;;;;;5093106;28;20735;-77
2021/11/06 01:58:25;;;;;;;22.55;13.00;;;;;;;;;;5108632;28;20200;-76
2021/11/06 02:00:52;;;;;;;18.23;11.30;;;;;;;;;;5109915;28;20219;-76
2021/11/06 02:03:22;;;;;;;22.40;12.80;;;;;;;;;;5110429;28;20227;-75
2021/11/06 02:05:49;;;;;;;25.20;13.60;;;;;;;;;;5110895;28;20196;-76
2021/11/06 02:08:17;;;;;;;19.55;12.27;;;;;;;;;;5111125;28;20193;-75
2021/11/06 02:10:47;;;;;;;19.65;11.88;;;;;;;;;;5111517;28;20223;-75
2021/11/06 02:13:15;;;;;;;21.50;12.35;;;;;;;;;;5113038;28;20211;-76
2021/11/06 02:15:42;;;;;;;24.83;13.95;;;;;;;;;;5112925;28;20204;-76
2021/11/06 02:18:10;;;;;;;21.45;13.38;;;;;;;;;;5110775;28;20199;-75
2021/11/06 02:20:39;;;;;;;21.60;12.40;;;;;;;;;;5089151;28;20208;-75
2021/11/06 02:23:07;;;;;;;24.48;13.20;;;;;;;;;;5091573;28;20208;-75
2021/11/06 02:25:35;;;;;;;25.40;13.07;;;;;;;;;;5110527;28;20203;-76
2021/11/06 02:28:06;;;;;;;20.00;11.98;;;;;;;;;;5110664;28;20197;-77
2021/11/06 02:30:33;;;;;;;24.63;12.35;;;;;;;;;;5110436;28;20220;-76
2021/11/06 02:33:00;;;;;;;26.50;13.20;;;;;;;;;;5111501;28;20213;-76
2021/11/06 02:35:27;;;;;;;20.20;12.00;;;;;;;;;;5112714;28;20199;-76
2021/11/06 02:37:55;;;;;;;24.25;13.40;;;;;;;;;;5112816;28;20208;-75
2021/11/06 02:40:24;;;;;;;24.15;11.75;;;;;;;;;;5110499;28;20244;-77
2021/11/06 02:42:51;;;;;;;23.77;12.13;;;;;;;;;;5108097;28;20236;-76
2021/11/06 02:45:21;;;;;;;22.52;13.07;;;;;;;;;;5109776;28;20207;-76
2021/11/06 02:47:55;;;;;;;24.45;11.90;;;;;;;;;;5110148;28;20208;-75
2021/11/06 02:50:22;;;;;;;18.15;11.23;;;;;;;;;;5110504;28;20689;-75
2021/11/06 02:52:52;;;;;;;27.33;11.60;;;;;;;;;;5110803;28;20197;-76
2021/11/06 02:55:20;;;;;;;17.92;10.45;;;;;;;;;;5111900;28;20201;-76
2021/11/06 02:57:53;;;;;;;17.15;11.73;;;;;;;;;;5112272;28;20291;-77
2021/11/06 03:00:20;;;;;;;24.90;12.20;;;;;;;;;;5094533;28;20221;-76
2021/11/06 03:02:48;;;;;;;21.00;10.35;;;;;;;;;;5109211;28;20227;-76
2021/11/06 03:05:16;;;;;;;16.58;9.55;;;;;;;;;;5107765;28;20587;-77
2021/11/06 03:07:44;;;;;;;22.13;11.73;;;;;;;;;;5089601;28;20198;-75
2021/11/06 03:10:12;;;;;;;21.65;11.05;;;;;;;;;;5089887;28;20587;-75
2021/11/06 03:12:40;;;;;;;18.80;10.15;;;;;;;;;;5089948;28;20196;-75
2021/11/06 03:15:09;;;;;;;17.92;9.75;;;;;;;;;;5090201;28;20198;-76
2021/11/06 03:17:36;;;;;;;16.67;9.68;;;;;;;;;;5114521;28;20201;-75
2021/11/06 03:20:04;;;;;;;18.35;10.77;;;;;;;;;;5115955;28;20581;-76
2021/11/06 03:22:31;;;;;;;20.83;11.02;;;;;;;;;;5116163;28;20247;-77
2021/11/06 03:24:58;;;;;;;21.88;10.90;;;;;;;;;;5112730;28;20201;-76
2021/11/06 03:27:26;;;;;;;18.13;11.23;;;;;;;;;;5111449;28;20193;-76
2021/11/06 03:29:53;;;;;;;16.92;10.77;;;;;;;;;;5113030;28;20707;-75
2021/11/06 03:32:21;;;;;;;19.02;10.20;;;;;;;;;;5113313;28;20740;-76
2021/11/06 03:34:48;;;;;;;16.95;10.80;;;;;;;;;;5113842;28;20192;-75
2021/11/06 03:37:15;;;;;;;22.73;11.38;;;;;;;;;;5114461;28;20219;-76
2021/11/06 03:39:43;;;;;;;17.90;10.32;;;;;;;;;;5115130;28;20568;-75
2021/11/06 03:42:10;;;;;;;17.48;12.23;;;;;;;;;;5115648;28;20694;-76
2021/11/06 03:44:37;;;;;;;17.63;11.88;;;;;;;;;;5115746;28;20206;-75
2021/11/06 03:47:04;;;;;;;15.10;11.80;;;;;;;;;;5112404;28;20205;-75
2021/11/06 03:49:33;;;;;;;21.70;12.98;;;;;;;;;;5111229;28;20814;-75
2021/11/06 03:52:00;;;;;;;19.75;11.82;;;;;;;;;;5112923;28;20200;-76
2021/11/06 03:54:27;;;;;;;16.92;11.10;;;;;;;;;;5113167;28;20203;-75
2021/11/06 03:56:55;;;;;;;15.75;11.63;;;;;;;;;;5113268;28;20200;-75
2021/11/06 03:59:22;;;;;;;21.13;10.95;;;;;;;;;;5113519;28;20213;-75
2021/11/06 04:01:50;;;;;;;18.48;11.80;;;;;;;;;;5114788;28;20211;-76
2021/11/06 04:04:17;;;;;;;17.70;12.25;;;;;;;;;;5097400;28;20240;-76
2021/11/06 04:06:46;;;;;;;16.33;10.32;;;;;;;;;;5115279;28;20203;-76
2021/11/06 04:09:13;;;;;;;18.63;12.07;;;;;;;;;;5111581;28;20221;-76
2021/11/06 04:11:40;;;;;;;18.90;10.40;;;;;;;;;;5111418;28;20201;-76
2021/11/06 04:14:07;;;;;;;17.52;11.98;;;;;;;;;;5112577;28;20205;-75
2021/11/06 04:16:35;;;;;;;15.77;11.57;;;;;;;;;;5112800;28;20674;-76
2021/11/06 04:19:02;;;;;;;17.05;12.38;;;;;;;;;;5113207;28;20550;-75
2021/11/06 04:21:29;;;;;;;19.40;12.13;;;;;;;;;;5113372;28;20216;-76
2021/11/06 04:23:58;;;;;;;21.25;12.25;;;;;;;;;;5094385;28;20221;-76
2021/11/06 04:26:25;;;;;;;18.92;12.70;;;;;;;;;;5094447;28;20204;-75
2021/11/06 04:28:52;;;;;;;15.15;12.27;;;;;;;;;;5093874;28;20221;-75
2021/11/06 04:31:19;;;;;;;22.85;13.18;;;;;;;;;;5107015;28;20639;-75
2021/11/06 04:33:46;;;;;;;22.20;13.32;;;;;;;;;;5110362;28;20667;-76
2021/11/06 04:36:14;;;;;;;15.38;12.00;;;;;;;;;;5111979;28;20582;-75
2021/11/06 04:38:41;;;;;;;19.02;13.13;;;;;;;;;;5094412;28;20196;-75
2021/11/06 04:41:09;;;;;;;18.40;12.63;;;;;;;;;;5112817;28;20201;-75
2021/11/06 04:43:38;;;;;;;17.75;12.25;;;;;;;;;;5112400;28;20220;-74
2021/11/06 04:46:05;;;;;;;19.50;13.18;;;;;;;;;;5114479;28;20295;-76
2021/11/06 04:48:32;;;;;;;17.42;12.45;;;;;;;;;;5114646;28;20644;-75
2021/11/06 04:50:59;;;;;;;21.90;14.73;;;;;;;;;;5114781;28;20207;-75
2021/11/06 04:53:27;;;;;;;20.98;13.25;;;;;;;;;;5110850;28;20200;-76
2021/11/06 04:55:54;;;;;;;20.38;12.50;;;;;;;;;;5110394;28;20197;-75
2021/11/06 04:58:22;;;;;;;19.48;13.10;;;;;;;;;;5111741;28;20200;-75
2021/11/06 05:00:50;;;;;;;19.50;11.70;;;;;;;;;;5112165;28;20224;-75
2021/11/06 05:03:17;;;;;;;18.92;12.20;;;;;;;;;;5112073;28;20217;-74
2021/11/06 05:05:44;;;;;;;19.95;12.77;;;;;;;;;;5111684;28;20649;-75
2021/11/06 05:08:12;;;;;;;19.27;12.60;;;;;;;;;;5114069;28;20197;-75
2021/11/06 05:10:39;;;;;;;20.23;12.00;;;;;;;;;;5113983;28;20216;-76
2021/11/06 05:13:07;;;;;;;17.90;12.35;;;;;;;;;;5113757;28;20667;-76
2021/11/06 05:15:35;;;;;;;15.10;11.18;;;;;;;;;;5110169;28;20201;-76
2021/11/06 05:18:02;;;;;;;16.75;11.80;;;;;;;;;;5109926;28;20204;-76
2021/11/06 05:20:31;;;;;;;18.83;11.90;;;;;;;;;;5111208;28;20906;-76
2021/11/06 05:22:58;;;;;;;17.40;12.35;;;;;;;;;;5111527;28;20212;-76
2021/11/06 05:25:25;;;;;;;17.80;11.60;;;;;;;;;;5111967;28;20192;-76
2021/11/06 05:27:53;;;;;;;14.00;11.02;;;;;;;;;;5111454;28;20483;-76
2021/11/06 05:30:20;;;;;;;15.65;10.75;;;;;;;;;;5113627;28;20227;-76
2021/11/06 05:32:49;;;;;;;21.42;12.82;;;;;;;;;;5113356;28;20229;-76
2021/11/06 05:35:17;;;;;;;18.65;11.85;;;;;;;;;;5113833;28;20196;-76
2021/11/06 05:37:44;;;;;;;20.02;12.10;;;;;;;;;;5109561;28;20204;-76
2021/11/06 05:40:12;;;;;;;16.30;10.80;;;;;;;;;;5109197;28;20216;-76
2021/11/06 05:42:39;;;;;;;19.08;12.60;;;;;;;;;;5092995;28;20635;-76
2021/11/06 05:45:07;;;;;;;17.13;11.10;;;;;;;;;;5092922;28;20193;-76
2021/11/06 05:47:35;;;;;;;21.42;12.57;;;;;;;;;;5111558;28;20196;-76
2021/11/06 05:50:03;;;;;;;17.50;11.18;;;;;;;;;;5111262;28;20399;-76
2021/11/06 05:52:30;;;;;;;16.05;11.60;;;;;;;;;;5113416;28;20257;-76
2021/11/06 05:54:58;;;;;;;17.27;11.85;;;;;;;;;;5113226;28;20197;-76
2021/11/06 05:57:25;;;;;;;15.95;11.30;;;;;;;;;;5113168;28;20202;-75
2021/11/06 05:59:52;;;;;;;16.02;11.43;;;;;;;;;;5089795;28;20212;-75
2021/11/06 06:02:19;;;;;;;17.80;12.02;;;;;;;;;;5109039;28;20196;-75
2021/11/06 06:04:46;;;;;;;21.00;12.35;;;;;;;;;;5110805;28;20220;-75
2021/11/06 06:07:15;;;;;;;19.40;12.00;;;;;;;;;;5110902;28;20200;-76
2021/11/06 06:09:42;;;;;;;15.82;11.30;;;;;;;;;;5111163;28;20213;-75
2021/11/06 06:12:10;;;;;;;18.77;11.60;;;;;;;;;;5110896;28;20192;-76
2021/11/06 06:14:37;;;;;;;18.60;11.65;;;;;;;;;;5113444;28;20193;-74
2021/11/06 06:17:04;;;;;;;15.60;10.93;;;;;;;;;;5113185;28;20290;-75
2021/11/06 06:19:32;;;;;;;18.60;12.43;;;;;;;;;;5113040;28;20689;-76
2021/11/06 06:21:59;;;;;;;15.68;11.00;;;;;;;;;;5108742;28;20188;-76
2021/11/06 06:24:27;;;;;;;21.00;10.93;;;;;;;;;;5108433;28;20223;-76
2021/11/06 06:26:54;;;;;;;18.15;10.60;;;;;;;;;;5111105;28;20203;-75
2021/11/06 06:29:22;;;;;;;17.48;10.95;;;;;;;;;;5110805;28;20240;-75
2021/11/06 06:31:49;;;;;;;17.27;11.95;;;;;;;;;;5110694;28;20233;-75
2021/11/06 06:34:16;;;;;;;16.02;11.75;;;;;;;;;;5111070;28;20804;-75
2021/11/06 06:36:43;;;;;;;17.65;11.35;;;;;;;;;;5112830;28;20849;-76
2021/11/06 06:39:13;;;;;;;16.23;11.02;;;;;;;;;;5112684;28;20217;-75
2021/11/06 06:41:43;;;;;;;18.27;11.50;;;;;;;;;;5112892;28;20196;-75
2021/11/06 06:44:10;;;;;;;19.42;12.15;;;;;;;;;;5108328;28;20646;-75
2021/11/06 06:46:38;;;;;;;14.65;10.40;;;;;;;;;;5108674;28;20267;-76
2021/11/06 06:49:05;;;;;;;18.58;11.82;;;;;;;;;;5110333;28;20231;-75
2021/11/06 06:51:32;;;;;;;17.55;11.05;;;;;;;;;;5113293;28;20208;-75
2021/11/06 06:53:59;;;;;;;15.85;11.30;;;;;;;;;;5114571;28;20189;-76
2021/11/06 06:56:27;;;;;;;20.33;11.52;;;;;;;;;;5115120;28;20204;-76
2021/11/06 06:59:24;;;;;;;16.25;11.52;;;;;;;;;;5116560;28;20569;-76
2021/11/06 07:01:53;;;;;;;16.98;10.52;;;;;;;;;;5099731;28;20201;-76
2021/11/06 07:04:20;;;;;;;17.10;11.32;;;;;;;;;;5115285;28;20223;-76
2021/11/06 07:06:51;;;;;;;18.67;11.85;;;;;;;;;;5112138;28;20184;-76
2021/11/06 07:09:18;;;;;;;25.33;11.65;;;;;;;;;;5113061;28;20356;-76
2021/11/06 07:11:45;;;;;;;20.20;12.38;;;;;;;;;;5114217;28;20301;-76
2021/11/06 07:14:12;;;;;;;20.23;12.05;;;;;;;;;;5114180;28;20200;-76
2021/11/06 07:16:42;;;;;;;17.55;12.20;;;;;;;;;;5114216;28;20192;-76
2021/11/06 07:19:10;;;;;;;14.65;10.80;;;;;;;;;;5114843;28;20589;-76
2021/11/06 07:21:37;;;;;;;16.10;11.75;;;;;;;;;;5116445;28;20196;-77
2021/11/06 07:24:05;;;;;;;16.30;11.90;;;;;;;;;;5116107;28;20217;-75
2021/11/06 07:26:32;;;;;;;19.02;12.55;;;;;;;;;;5114807;28;20200;-76
2021/11/06 07:29:00;;;;;;;18.95;12.40;;;;;;;;;;5111348;28;20208;-75
2021/11/06 07:31:27;;;;;;;18.30;13.15;;;;;;;;;;5112704;28;20228;-76
2021/11/06 07:33:54;;;;;;;18.45;11.98;;;;;;;;;;5113982;28;20219;-76
2021/11/06 07:36:23;;;;;;;15.55;10.90;;;;;;;;;;5113921;28;20224;-76
2021/11/06 07:38:53;;;;;;;15.70;11.40;;;;;;;;;;5113760;28;20197;-76
2021/11/06 07:41:20;;;;;;;19.90;12.90;;;;;;;;;;5114076;28;20610;-75
2021/11/06 07:43:47;;;;;;;18.05;11.25;;;;;;;;;;5111035;28;20262;-76
2021/11/06 07:46:14;;;;;;;17.58;12.60;;;;;;;;;;5111960;28;20277;-75
2021/11/06 07:48:42;;;;;;;20.75;11.93;;;;;;;;;;5113661;28;20309;-77
2021/11/06 07:51:09;;;;;;;16.05;11.32;;;;;;;;;;5113632;28;20196;-77
2021/11/06 07:53:38;;;;;;;19.55;12.95;;;;;;;;;;5113579;28;20649;-76
2021/11/06 07:56:05;;;;;;;22.15;12.05;;;;;;;;;;5095732;28;20189;-75
2021/11/06 07:58:33;;;;;;;15.30;11.70;;;;;;;;;;5115240;28;20201;-76
2021/11/06 08:01:00;;;;;;;17.83;11.90;;;;;;;;;;5115658;28;20200;-75
2021/11/06 08:03:27;;;;;;;17.60;12.32;;;;;;;;;;5097140;28;20242;-75
2021/11/06 08:05:54;;;;;;;15.90;12.07;;;;;;;;;;5110748;28;20197;-76
2021/11/06 08:08:22;;;;;;;16.20;10.55;;;;;;;;;;5111352;28;20204;-76
2021/11/06 08:10:50;;;;;;;14.65;11.57;;;;;;;;;;5113013;28;20212;-76
2021/11/06 08:13:17;;;;;;;13.25;10.40;;;;;;;;;;5113442;28;20201;-76
2021/11/06 08:15:45;;;;;;;15.60;11.25;;;;;;;;;;5113542;28;20197;-76
2021/11/06 08:18:13;;;;;;;16.77;10.93;;;;;;;;;;5113561;28;20586;-75
2021/11/06 08:20:40;;;;;;;16.20;11.03;;;;;;;;;;5114938;28;20696;-76
2021/11/06 08:23:07;;;;;;;11.95;9.60;;;;;;;;;;5115014;28;20457;-76
2021/11/06 08:25:34;;;;;;;16.00;11.43;;;;;;;;;;5114520;28;20227;-76
2021/11/06 08:28:03;;;;;;;12.82;10.48;;;;;;;;;;5110702;28;20930;-76
2021/11/06 08:30:31;;;;;;;13.65;9.88;;;;;;;;;;5110872;28;20216;-75
2021/11/06 08:32:59;;;;;;;14.05;10.07;;;;;;;;;;5094731;28;20192;-76
2021/11/06 08:35:28;;;;;;;14.43;9.68;;;;;;;;;;5094676;28;20604;-75
2021/11/06 08:37:55;;;;;;;15.05;10.98;;;;;;;;;;5090362;28;20227;-77
2021/11/06 08:40:23;;;;;;;12.90;10.50;;;;;;;;;;5108772;28;20222;-79
2021/11/06 08:42:50;;;;;;;17.60;9.80;;;;;;;;;;5114736;28;20474;-76
2021/11/06 08:45:18;;;;;;;16.85;9.80;;;;;;;;;;5114508;28;20473;-78
2021/11/06 08:47:46;;;;;;;14.80;9.37;;;;;;;;;;5114002;28;20193;-76
2021/11/06 08:50:14;;;;;;;9.80;8.80;;;;;;;;;;5109139;28;20450;-77
2021/11/06 08:52:42;;;;;;;10.50;8.67;;;;;;;;;;5110368;28;20438;-77
2021/11/06 08:55:09;;;;;;;10.43;8.32;;;;;;;;;;5111973;28;20856;-76
2021/11/06 08:57:37;;;;;;;10.70;7.67;;;;;;;;;;5111746;28;20199;-76
2021/11/06 09:00:06;;;;;;;9.60;7.47;;;;;;;;;;5093847;28;20493;-76
2021/11/06 09:02:35;;;;;;;8.37;6.77;;;;;;;;;;5112391;28;20485;-76
2021/11/06 09:05:02;;;;;;;10.87;7.47;;;;;;;;;;5092138;28;20566;-77
2021/11/06 09:07:32;;;;;;;7.17;6.33;;;;;;;;;;5110063;28;20434;-76
2021/11/06 09:10:00;;;;;;;8.40;5.13;;;;;;;;;;5111497;28;20469;-76
2021/11/06 09:12:28;;;;;;;5.10;4.30;;;;;;;;;;5111782;28;20487;-76
2021/11/06 09:14:55;;;;;;;6.27;4.90;;;;;;;;;;5111461;28;20457;-78
2021/11/06 09:17:22;;;;;;;10.10;5.27;;;;;;;;;;5111957;28;20446;-77
2021/11/06 09:19:51;;;;;;;4.73;4.23;;;;;;;;;;5113242;28;20482;-77
2021/11/06 09:22:18;;;;;;;6.50;4.00;;;;;;;;;;5113955;28;20438;-77
2021/11/06 09:24:46;;;;;;;5.97;4.13;;;;;;;;;;5114030;28;20474;-78
2021/11/06 09:27:13;;;;;;;4.30;3.90;;;;;;;;;;5110866;28;20438;-77
2021/11/06 09:29:41;;;;;;;6.47;4.80;;;;;;;;;;5108886;28;20458;-77
2021/11/06 09:32:09;;;;;;;8.90;4.97;;;;;;;;;;5111094;28;20470;-79
2021/11/06 09:34:36;;;;;;;6.27;4.07;;;;;;;;;;5111519;28;20461;-78
2021/11/06 09:37:05;;;;;;;7.73;4.03;;;;;;;;;;5111640;28;20919;-78
2021/11/06 09:39:32;;;;;;;7.60;4.77;;;;;;;;;;5111872;28;20474;-76
2021/11/06 09:41:59;;;;;;;4.33;3.80;;;;;;;;;;5112989;28;20798;-77
2021/11/06 09:44:27;;;;;;;9.37;5.00;;;;;;;;;;5113337;28;20482;-75
2021/11/06 09:46:54;;;;;;;6.53;4.27;;;;;;;;;;5095455;28;20783;-77
2021/11/06 09:49:21;;;;;;;5.70;3.50;;;;;;;;;;5110654;28;20454;-76
2021/11/06 09:51:48;;;;;;;6.13;4.30;;;;;;;;;;5089890;28;20444;-74
2021/11/06 09:54:17;;;;;;;8.40;3.70;;;;;;;;;;5110562;28;20447;-75
2021/11/06 09:56:44;;;;;;;5.60;3.60;;;;;;;;;;5110924;28;20441;-76
2021/11/06 09:59:11;;;;;;;4.70;3.30;;;;;;;;;;5111314;28;20826;-75
2021/11/06 10:01:39;;;;;;;4.33;3.53;;;;;;;;;;5111761;28;20677;-74
2021/11/06 10:04:08;;;;;;;6.50;4.40;;;;;;;;;;5112358;28;20469;-75
2021/11/06 10:06:36;;;;;;;5.03;3.60;;;;;;;;;;5113281;28;20472;-75
2021/11/06 10:09:07;;;;;;;5.07;3.97;;;;;;;;;;5095071;28;20458;-75
2021/11/06 10:11:37;;;;;;;4.57;3.13;;;;;;;;;;5110264;28;20441;-75
2021/11/06 10:14:05;;;;;;;6.67;4.13;;;;;;;;;;5108657;28;20431;-75
2021/11/06 10:16:34;;;;;;;5.77;3.87;;;;;;;;;;5110785;28;20449;-75
2021/11/06 10:19:06;;;;;;;7.00;4.30;;;;;;;;;;5110940;28;21166;-75
2021/11/06 10:21:33;;;;;;;9.57;3.17;;;;;;;;;;5111266;28;20442;-73
2021/11/06 10:24:00;;;;;;;5.07;3.30;;;;;;;;;;5111080;28;20447;-75
2021/11/06 10:26:28;;;;;;;3.63;2.63;;;;;;;;;;5115031;28;20994;-74
2021/11/06 10:29:05;;;;;;;3.23;2.87;;;;;;;;;;5117260;28;20821;-74
2021/11/06 10:31:32;;;;;;;4.37;3.03;;;;;;;;;;5099152;28;20469;-75
2021/11/06 10:33:59;;;;;;;4.50;3.50;;;;;;;;;;5113666;28;20445;-75
2021/11/06 10:36:27;;;;;;;3.57;3.13;;;;;;;;;;5112557;28;20927;-74
2021/11/06 10:39:05;;;;;;;2.87;2.60;;;;;;;;;;5096312;28;20453;-75
2021/11/06 10:41:34;;;;;;;3.10;2.20;;;;;;;;;;5096626;28;20449;-75
2021/11/06 10:44:03;;;;;;;2.63;2.23;;;;;;;;;;5115052;28;20434;-74
2021/11/06 10:46:30;;;;;;;3.17;2.87;;;;;;;;;;5114340;28;20788;-75
2021/11/06 10:48:58;;;;;;;2.97;2.07;;;;;;;;;;5116515;28;20462;-75
2021/11/06 10:51:26;;;;;;;2.67;1.90;;;;;;;;;;5116890;28;20438;-75
2021/11/06 10:53:53;;;;;;;2.60;2.13;;;;;;;;;;5116667;28;20438;-75
2021/11/06 10:56:23;;;;;;;3.00;1.93;;;;;;;;;;5094067;28;20430;-75
2021/11/06 10:58:51;;;;;;;2.63;2.20;;;;;;;;;;5112704;28;20469;-74
2021/11/06 11:01:21;;;;;;;2.73;2.23;;;;;;;;;;5096091;28;20474;-74
2021/11/06 11:03:49;;;;;;;5.50;2.60;;;;;;;;;;5114209;28;20438;-75
2021/11/06 11:06:17;;;;;;;4.83;2.00;;;;;;;;;;5095576;28;20466;-75
2021/11/06 11:08:45;;;;;;;2.67;2.30;;;;;;;;;;5112246;28;20801;-74
2021/11/06 11:11:13;;;;;;;1.77;1.67;;;;;;;;;;5092223;27;20450;-75
2021/11/06 11:13:48;;;;;;;2.43;1.57;;;;;;;;;;5112867;28;20443;-75
2021/11/06 11:16:16;;;;;;;1.50;1.23;;;;;;;;;;5096074;28;20483;-73
2021/11/06 11:18:45;;;;;;;2.40;1.50;;;;;;;;;;5133439;27;20476;-75
2021/11/06 11:21:14;;;;;;;1.67;1.57;;;;;;;;;;5134499;27;20444;-75
2021/11/06 11:23:42;;;;;;;2.17;1.53;;;;;;;;;;5125253;27;20457;-74
2021/11/06 11:26:09;;;;;;;1.40;1.30;;;;;;;;;;5113266;28;21227;-76
2021/11/06 11:28:36;;;;;;;2.53;1.33;;;;;;;;;;5111030;27;20447;-75
2021/11/06 11:31:03;;;;;;;1.77;1.10;;;;;;;;;;5112252;27;20481;-75
2021/11/06 11:33:31;;;;;;;4.20;1.57;;;;;;;;;;5113010;28;20442;-75
2021/11/06 11:35:59;;;;;;;2.90;1.87;;;;;;;;;;5113389;28;20512;-76
2021/11/06 11:38:27;;;;;;;2.67;1.50;;;;;;;;;;5113571;28;20672;-76
2021/11/06 11:41:06;;;;;;;1.50;1.40;;;;;;;;;;5110982;28;20470;-76
2021/11/06 11:43:35;;;;;;;1.47;1.20;;;;;;;;;;5111018;28;20937;-77
2021/11/06 11:46:04;;;;;;;1.23;1.10;;;;;;;;;;5113045;28;20485;-75
2021/11/06 11:48:31;;;;;;;2.00;1.30;;;;;;;;;;5113375;28;20855;-75
2021/11/06 11:51:01;;;;;;;1.50;1.30;;;;;;;;;;5112903;28;20942;-75
2021/11/06 11:53:29;;;;;;;2.37;1.50;;;;;;;;;;5095234;28;20443;-75
2021/11/06 11:55:57;;;;;;;2.00;1.60;;;;;;;;;;5094583;28;20526;-75
2021/11/06 11:58:25;;;;;;;2.47;1.57;;;;;;;;;;5092310;28;20474;-75
2021/11/06 12:00:53;;;;;;;1.47;1.30;;;;;;;;;;5112332;28;20454;-75
2021/11/06 12:03:35;;;;;;;2.47;1.80;;;;;;;;;;5113369;28;20442;-75
2021/11/06 12:06:20;;;;;;;2.23;1.70;;;;;;;;;;5097312;28;20527;-75
2021/11/06 12:08:47;;;;;;;3.00;2.30;;;;;;;;;;5113337;28;20916;-76
2021/11/06 12:11:16;;;;;;;4.23;2.10;;;;;;;;;;5096505;28;20932;-76
2021/11/06 12:13:48;;;;;;;2.43;1.73;;;;;;;;;;5114777;28;20439;-73
2021/11/06 12:16:16;;;;;;;3.37;1.50;;;;;;;;;;5113401;28;20458;-75
2021/11/06 12:18:49;;;;;;;2.20;1.40;;;;;;;;;;5110547;28;20445;-76
2021/11/06 12:21:26;;;;;;;1.60;1.33;;;;;;;;;;5111634;28;20482;-75
2021/11/06 12:23:55;;;;;;;2.13;1.30;;;;;;;;;;5112872;28;20474;-75
2021/11/06 12:26:23;;;;;;;3.67;1.30;;;;;;;;;;5113147;28;20478;-75
2021/11/06 12:28:51;;;;;;;2.90;1.33;;;;;;;;;;5113535;28;20445;-73
2021/11/06 12:31:33;;;;;;;1.33;1.03;;;;;;;;;;5102150;28;20484;-74
2021/11/06 12:34:01;;;;;;;2.27;1.20;;;;;;;;;;5099043;28;20438;-74
2021/11/06 12:36:31;;;;;;;1.47;1.37;;;;;;;;;;5114754;28;20446;-75
2021/11/06 12:38:59;;;;;;;1.40;1.20;;;;;;;;;;5111903;28;20829;-74
2021/11/06 12:41:27;;;;;;;1.80;1.30;;;;;;;;;;5110216;28;20419;-75
2021/11/06 12:43:55;;;;;;;3.10;1.20;;;;;;;;;;5094029;28;20443;-76
2021/11/06 12:46:24;;;;;;;3.63;1.00;;;;;;;;;;5094382;28;20485;-74
2021/11/06 12:48:52;;;;;;;1.47;0.90;;;;;;;;;;5111804;28;20442;-74
2021/11/06 12:51:21;;;;;;;4.27;1.30;;;;;;;;;;5112639;28;20451;-74
2021/11/06 12:53:50;;;;;;;1.93;1.20;;;;;;;;;;5095564;28;20453;-76
2021/11/06 12:56:18;;;;;;;1.97;1.40;;;;;;;;;;5096431;28;20442;-74
2021/11/06 12:58:46;;;;;;;1.40;1.13;;;;;;;;;;5109803;28;20522;-74
2021/11/06 13:01:23;;;;;;;1.50;1.30;;;;;;;;;;5109996;28;20450;-74
2021/11/06 13:03:50;;;;;;;2.33;1.10;;;;;;;;;;5089032;28;20435;-75
2021/11/06 13:06:18;;;;;;;1.00;0.90;;;;;;;;;;5112219;28;20474;-74
2021/11/06 13:09:00;;;;;;;1.83;1.30;;;;;;;;;;5111818;28;20439;-75
2021/11/06 13:11:43;;;;;;;2.13;1.37;;;;;;;;;;5096120;28;20454;-75
2021/11/06 13:14:10;;;;;;;1.50;1.23;;;;;;;;;;5113890;28;20442;-74
2021/11/06 13:16:38;;;;;;;1.63;1.10;;;;;;;;;;5113673;28;20786;-74
2021/11/06 13:19:05;;;;;;;3.00;1.30;;;;;;;;;;5112952;28;20465;-74
2021/11/06 13:21:43;;;;;;;2.50;1.30;;;;;;;;;;5109297;28;20431;-74
2021/11/06 13:24:10;;;;;;;3.00;1.80;;;;;;;;;;5109870;28;20438;-75
2021/11/06 13:26:38;;;;;;;1.93;1.40;;;;;;;;;;5111097;28;20845;-74
2021/11/06 13:29:06;;;;;;;4.50;1.47;;;;;;;;;;5111700;28;20469;-75
2021/11/06 13:31:33;;;;;;;1.77;1.40;;;;;;;;;;5110557;28;20823;-74
2021/11/06 13:34:00;;;;;;;2.03;1.17;;;;;;;;;;5111021;28;20462;-74
2021/11/06 13:36:28;;;;;;;1.63;1.33;;;;;;;;;;5108866;28;20439;-75
2021/11/06 13:38:57;;;;;;;1.87;1.47;;;;;;;;;;5108955;28;20550;-80
2021/11/06 13:41:25;;;;;;;1.50;1.30;;;;;;;;;;5110738;28;20454;-78
2021/11/06 13:43:57;;;;;;;2.27;1.50;;;;;;;;;;5093203;28;20446;-74
2021/11/06 13:46:28;;;;;;;1.80;1.30;;;;;;;;;;5111140;28;20470;-76
2021/11/06 13:48:57;;;;;;;1.47;1.13;;;;;;;;;;5111831;28;20531;-73
2021/11/06 13:51:27;;;;;;;2.97;1.70;;;;;;;;;;5094994;28;20443;-79
2021/11/06 13:53:56;;;;;;;2.97;1.30;;;;;;;;;;5112610;28;20795;-76
2021/11/06 13:56:26;;;;;;;1.60;1.30;;;;;;;;;;5093695;28;20923;-79
2021/11/06 13:58:55;;;;;;;2.40;1.27;;;;;;;;;;5108357;28;20485;-80
2021/11/06 14:01:23;;;;;;;2.63;1.80;;;;;;;;;;5109241;28;20451;-77
2021/11/06 14:03:50;;;;;;;2.27;1.30;;;;;;;;;;5111104;28;20462;-76
2021/11/06 14:06:17;;;;;;;1.43;1.30;;;;;;;;;;5111133;28;20474;-76
2021/11/06 14:08:45;;;;;;;1.30;1.13;;;;;;;;;;5110929;28;20453;-79
2021/11/06 14:11:12;;;;;;;1.50;1.30;;;;;;;;;;5111424;28;20466;-77
2021/11/06 14:13:39;;;;;;;2.53;1.47;;;;;;;;;;5098000;28;20955;-79
2021/11/06 14:16:16;;;;;;;1.57;1.10;;;;;;;;;;5112241;28;20442;-74
2021/11/06 14:18:46;;;;;;;2.70;1.50;;;;;;;;;;5107747;28;20505;-76
2021/11/06 14:21:17;;;;;;;2.53;1.57;;;;;;;;;;5108744;28;20454;-75
2021/11/06 14:23:44;;;;;;;1.57;1.40;;;;;;;;;;5110761;28;20542;-75
2021/11/06 14:26:13;;;;;;;1.53;1.20;;;;;;;;;;5110508;28;20899;-76
2021/11/06 14:28:48;;;;;;;1.97;1.30;;;;;;;;;;5110255;28;20455;-75
2021/11/06 14:31:27;;;;;;;1.57;1.20;;;;;;;;;;5109481;28;20475;-74
2021/11/06 14:33:55;;;;;;;1.77;1.30;;;;;;;;;;5108301;28;20518;-75